sensor_id;sensor_type;location;lat;lon;timestamp;P1;durP1;ratioP1;P2;durP2;ratioP2
23506;SDS011;11930;53.076;18.250;2023-09-08T00:01:50;16.30;;;11.43;;
23506;SDS011;11930;53.076;18.250;2023-09-08T00:04:16;14.77;;;11.05;;
23506;SDS011;11930;53.076;18.250;2023-09-08T00:06:42;18.13;;;11.50;;
23506;SDS011;11930;53.076;18.250;2023-09-08T00:09:08;13.43;;;11.00;;
23506;SDS011;11930;53.076;18.250;2023-09-08T00:11:34;14.93;;;10.82;;
23506;SDS011;11930;53.076;18.250;2023-09-08T00:14:00;16.67;;;11.20;;
23506;SDS011;11930;53.076;18.250;2023-09-08T00:16:26;14.70;;;10.60;;
23506;SDS011;11930;53.076;18.250;2023-09-08T00:18:55;17.77;;;11.20;;
23506;SDS011;11930;53.076;18.250;2023-09-08T00:21:22;12.83;;;10.13;;
23506;SDS011;11930;53.076;18.250;2023-09-08T00:23:48;15.07;;;10.47;;
23506;SDS011;11930;53.076;18.250;2023-09-08T00:26:14;15.20;;;10.77;;
23506;SDS011;11930;53.076;18.250;2023-09-08T00:28:41;13.47;;;10.30;;
23506;SDS011;11930;53.076;18.250;2023-09-08T00:31:07;12.53;;;10.00;;
23506;SDS011;11930;53.076;18.250;2023-09-08T00:33:34;15.00;;;10.37;;
23506;SDS011;11930;53.076;18.250;2023-09-08T00:35:59;14.60;;;10.43;;
23506;SDS011;11930;53.076;18.250;2023-09-08T00:38:26;17.13;;;10.47;;
23506;SDS011;11930;53.076;18.250;2023-09-08T00:40:52;14.27;;;10.03;;
23506;SDS011;11930;53.076;18.250;2023-09-08T00:43:18;15.10;;;10.20;;
23506;SDS011;11930;53.076;18.250;2023-09-08T00:45:44;16.57;;;10.87;;
23506;SDS011;11930;53.076;18.250;2023-09-08T00:48:11;14.75;;;9.77;;
23506;SDS011;11930;53.076;18.250;2023-09-08T00:50:39;14.98;;;9.85;;
23506;SDS011;11930;53.076;18.250;2023-09-08T00:53:06;14.67;;;10.33;;
23506;SDS011;11930;53.076;18.250;2023-09-08T00:55:33;15.03;;;9.80;;
23506;SDS011;11930;53.076;18.250;2023-09-08T00:57:59;16.07;;;10.47;;
23506;SDS011;11930;53.076;18.250;2023-09-08T01:00:27;17.27;;;10.20;;
23506;SDS011;11930;53.076;18.250;2023-09-08T01:02:53;14.20;;;10.30;;
23506;SDS011;11930;53.076;18.250;2023-09-08T01:05:19;17.08;;;10.43;;
23506;SDS011;11930;53.076;18.250;2023-09-08T01:07:46;16.67;;;10.23;;
23506;SDS011;11930;53.076;18.250;2023-09-08T01:10:14;15.33;;;10.50;;
23506;SDS011;11930;53.076;18.250;2023-09-08T01:12:41;16.73;;;10.30;;
23506;SDS011;11930;53.076;18.250;2023-09-08T01:15:07;14.80;;;10.70;;
23506;SDS011;11930;53.076;18.250;2023-09-08T01:17:33;15.18;;;11.02;;
23506;SDS011;11930;53.076;18.250;2023-09-08T01:20:01;16.77;;;10.67;;
23506;SDS011;11930;53.076;18.250;2023-09-08T01:25:35;15.70;;;11.40;;
23506;SDS011;11930;53.076;18.250;2023-09-08T01:28:12;13.37;;;10.23;;
23506;SDS011;11930;53.076;18.250;2023-09-08T01:30:38;16.17;;;11.55;;
23506;SDS011;11930;53.076;18.250;2023-09-08T01:33:05;17.00;;;10.53;;
23506;SDS011;11930;53.076;18.250;2023-09-08T01:35:31;17.97;;;10.93;;
23506;SDS011;11930;53.076;18.250;2023-09-08T01:37:59;15.53;;;9.97;;
23506;SDS011;11930;53.076;18.250;2023-09-08T01:40:25;17.00;;;10.53;;
23506;SDS011;11930;53.076;18.250;2023-09-08T01:42:51;13.27;;;10.20;;
23506;SDS011;11930;53.076;18.250;2023-09-08T01:45:17;19.63;;;11.13;;
23506;SDS011;11930;53.076;18.250;2023-09-08T01:47:43;13.97;;;10.07;;
23506;SDS011;11930;53.076;18.250;2023-09-08T01:50:09;14.50;;;10.77;;
23506;SDS011;11930;53.076;18.250;2023-09-08T01:52:35;20.17;;;11.73;;
23506;SDS011;11930;53.076;18.250;2023-09-08T01:55:01;20.83;;;11.27;;
23506;SDS011;11930;53.076;18.250;2023-09-08T01:57:28;15.83;;;10.43;;
23506;SDS011;11930;53.076;18.250;2023-09-08T01:59:54;12.23;;;9.63;;
23506;SDS011;11930;53.076;18.250;2023-09-08T02:02:20;16.90;;;11.00;;
23506;SDS011;11930;53.076;18.250;2023-09-08T02:04:47;21.23;;;11.10;;
23506;SDS011;11930;53.076;18.250;2023-09-08T02:07:14;16.77;;;10.97;;
23506;SDS011;11930;53.076;18.250;2023-09-08T02:09:39;12.60;;;9.87;;
23506;SDS011;11930;53.076;18.250;2023-09-08T02:12:07;14.50;;;10.57;;
23506;SDS011;11930;53.076;18.250;2023-09-08T02:14:33;15.00;;;10.57;;
23506;SDS011;11930;53.076;18.250;2023-09-08T02:16:59;15.70;;;10.53;;
23506;SDS011;11930;53.076;18.250;2023-09-08T02:19:25;16.60;;;10.70;;
23506;SDS011;11930;53.076;18.250;2023-09-08T02:21:51;17.30;;;11.53;;
23506;SDS011;11930;53.076;18.250;2023-09-08T02:24:18;12.93;;;9.37;;
23506;SDS011;11930;53.076;18.250;2023-09-08T02:26:44;15.80;;;10.60;;
23506;SDS011;11930;53.076;18.250;2023-09-08T02:29:11;15.73;;;10.10;;
23506;SDS011;11930;53.076;18.250;2023-09-08T02:31:37;15.90;;;10.97;;
23506;SDS011;11930;53.076;18.250;2023-09-08T02:34:05;13.70;;;11.20;;
23506;SDS011;11930;53.076;18.250;2023-09-08T02:36:32;16.63;;;11.10;;
23506;SDS011;11930;53.076;18.250;2023-09-08T02:38:58;14.80;;;11.03;;
23506;SDS011;11930;53.076;18.250;2023-09-08T02:41:24;15.17;;;11.50;;
23506;SDS011;11930;53.076;18.250;2023-09-08T02:43:50;16.03;;;10.77;;
23506;SDS011;11930;53.076;18.250;2023-09-08T02:46:17;16.50;;;10.73;;
23506;SDS011;11930;53.076;18.250;2023-09-08T02:48:43;14.53;;;11.13;;
23506;SDS011;11930;53.076;18.250;2023-09-08T02:51:09;17.00;;;12.43;;
23506;SDS011;11930;53.076;18.250;2023-09-08T02:53:37;15.57;;;12.03;;
23506;SDS011;11930;53.076;18.250;2023-09-08T02:56:03;16.87;;;11.73;;
23506;SDS011;11930;53.076;18.250;2023-09-08T02:58:31;15.37;;;12.50;;
23506;SDS011;11930;53.076;18.250;2023-09-08T03:01:09;15.10;;;11.80;;
23506;SDS011;11930;53.076;18.250;2023-09-08T03:03:36;14.97;;;11.73;;
23506;SDS011;11930;53.076;18.250;2023-09-08T03:06:02;16.97;;;12.47;;
23506;SDS011;11930;53.076;18.250;2023-09-08T03:08:29;16.90;;;12.73;;
23506;SDS011;11930;53.076;18.250;2023-09-08T03:10:56;16.57;;;11.97;;
23506;SDS011;11930;53.076;18.250;2023-09-08T03:13:24;18.67;;;12.70;;
23506;SDS011;11930;53.076;18.250;2023-09-08T03:15:51;24.00;;;12.43;;
23506;SDS011;11930;53.076;18.250;2023-09-08T03:18:17;15.87;;;11.37;;
23506;SDS011;11930;53.076;18.250;2023-09-08T03:20:47;17.13;;;12.37;;
23506;SDS011;11930;53.076;18.250;2023-09-08T03:23:16;20.47;;;11.73;;
23506;SDS011;11930;53.076;18.250;2023-09-08T03:25:43;16.33;;;11.50;;
23506;SDS011;11930;53.076;18.250;2023-09-08T03:28:09;18.57;;;11.87;;
23506;SDS011;11930;53.076;18.250;2023-09-08T03:30:35;15.30;;;11.50;;
23506;SDS011;11930;53.076;18.250;2023-09-08T03:33:01;20.77;;;12.00;;
23506;SDS011;11930;53.076;18.250;2023-09-08T03:35:27;30.97;;;13.03;;
23506;SDS011;11930;53.076;18.250;2023-09-08T03:37:53;25.43;;;12.17;;
23506;SDS011;11930;53.076;18.250;2023-09-08T03:40:19;19.57;;;11.63;;
23506;SDS011;11930;53.076;18.250;2023-09-08T03:42:45;22.50;;;11.00;;
23506;SDS011;11930;53.076;18.250;2023-09-08T03:45:11;17.83;;;10.50;;
23506;SDS011;11930;53.076;18.250;2023-09-08T03:47:37;25.40;;;12.00;;
23506;SDS011;11930;53.076;18.250;2023-09-08T03:50:05;23.53;;;11.83;;
23506;SDS011;11930;53.076;18.250;2023-09-08T03:52:31;21.23;;;11.77;;
23506;SDS011;11930;53.076;18.250;2023-09-08T03:54:57;23.80;;;11.80;;
23506;SDS011;11930;53.076;18.250;2023-09-08T03:57:23;23.43;;;12.57;;
23506;SDS011;11930;53.076;18.250;2023-09-08T03:59:49;21.93;;;10.80;;
23506;SDS011;11930;53.076;18.250;2023-09-08T04:02:15;27.53;;;12.50;;
23506;SDS011;11930;53.076;18.250;2023-09-08T04:04:42;41.63;;;13.10;;
23506;SDS011;11930;53.076;18.250;2023-09-08T04:07:08;32.13;;;13.67;;
23506;SDS011;11930;53.076;18.250;2023-09-08T04:09:34;32.93;;;13.70;;
23506;SDS011;11930;53.076;18.250;2023-09-08T04:12:00;36.50;;;13.40;;
23506;SDS011;11930;53.076;18.250;2023-09-08T04:14:27;48.17;;;14.77;;
23506;SDS011;11930;53.076;18.250;2023-09-08T04:16:54;61.27;;;16.70;;
23506;SDS011;11930;53.076;18.250;2023-09-08T04:19:20;50.20;;;14.57;;
23506;SDS011;11930;53.076;18.250;2023-09-08T04:21:46;48.63;;;15.30;;
23506;SDS011;11930;53.076;18.250;2023-09-08T04:24:28;43.43;;;14.60;;
23506;SDS011;11930;53.076;18.250;2023-09-08T04:27:13;37.47;;;14.37;;
23506;SDS011;11930;53.076;18.250;2023-09-08T04:29:42;40.17;;;15.10;;
23506;SDS011;11930;53.076;18.250;2023-09-08T04:32:11;49.20;;;15.97;;
23506;SDS011;11930;53.076;18.250;2023-09-08T04:34:38;38.03;;;13.67;;
23506;SDS011;11930;53.076;18.250;2023-09-08T04:37:05;29.23;;;13.70;;
23506;SDS011;11930;53.076;18.250;2023-09-08T04:39:31;31.17;;;13.67;;
23506;SDS011;11930;53.076;18.250;2023-09-08T04:41:58;29.83;;;13.83;;
23506;SDS011;11930;53.076;18.250;2023-09-08T04:44:24;33.20;;;14.70;;
23506;SDS011;11930;53.076;18.250;2023-09-08T04:46:51;24.50;;;13.60;;
23506;SDS011;11930;53.076;18.250;2023-09-08T04:49:18;28.23;;;13.27;;
23506;SDS011;11930;53.076;18.250;2023-09-08T04:51:44;28.43;;;13.43;;
23506;SDS011;11930;53.076;18.250;2023-09-08T04:54:12;30.47;;;13.97;;
23506;SDS011;11930;53.076;18.250;2023-09-08T04:56:38;29.93;;;14.33;;
23506;SDS011;11930;53.076;18.250;2023-09-08T04:59:05;27.50;;;15.00;;
23506;SDS011;11930;53.076;18.250;2023-09-08T05:01:31;27.60;;;13.40;;
23506;SDS011;11930;53.076;18.250;2023-09-08T05:03:59;30.60;;;14.60;;
23506;SDS011;11930;53.076;18.250;2023-09-08T05:06:26;28.87;;;14.60;;
23506;SDS011;11930;53.076;18.250;2023-09-08T05:08:52;28.97;;;15.50;;
23506;SDS011;11930;53.076;18.250;2023-09-08T05:11:19;22.50;;;15.37;;
23506;SDS011;11930;53.076;18.250;2023-09-08T05:13:48;21.57;;;14.83;;
23506;SDS011;11930;53.076;18.250;2023-09-08T05:16:14;22.67;;;14.63;;
23506;SDS011;11930;53.076;18.250;2023-09-08T05:18:48;26.53;;;15.93;;
23506;SDS011;11930;53.076;18.250;2023-09-08T05:21:15;25.07;;;15.43;;
23506;SDS011;11930;53.076;18.250;2023-09-08T05:23:41;27.00;;;14.60;;
23506;SDS011;11930;53.076;18.250;2023-09-08T05:26:09;30.53;;;15.37;;
23506;SDS011;11930;53.076;18.250;2023-09-08T05:28:35;26.60;;;14.97;;
23506;SDS011;11930;53.076;18.250;2023-09-08T05:31:01;24.55;;;13.75;;
23506;SDS011;11930;53.076;18.250;2023-09-08T05:33:29;26.63;;;13.73;;
23506;SDS011;11930;53.076;18.250;2023-09-08T05:35:54;27.53;;;14.47;;
23506;SDS011;11930;53.076;18.250;2023-09-08T05:38:21;22.17;;;13.55;;
23506;SDS011;11930;53.076;18.250;2023-09-08T05:40:47;22.10;;;12.57;;
23506;SDS011;11930;53.076;18.250;2023-09-08T05:43:14;22.77;;;13.82;;
23506;SDS011;11930;53.076;18.250;2023-09-08T05:45:40;24.45;;;13.18;;
23506;SDS011;11930;53.076;18.250;2023-09-08T05:48:06;19.92;;;13.07;;
23506;SDS011;11930;53.076;18.250;2023-09-08T05:50:32;17.95;;;12.80;;
23506;SDS011;11930;53.076;18.250;2023-09-08T05:52:58;17.52;;;13.25;;
23506;SDS011;11930;53.076;18.250;2023-09-08T05:55:24;19.35;;;13.18;;
23506;SDS011;11930;53.076;18.250;2023-09-08T05:57:51;28.95;;;14.63;;
23506;SDS011;11930;53.076;18.250;2023-09-08T06:00:17;19.00;;;12.32;;
23506;SDS011;11930;53.076;18.250;2023-09-08T06:02:52;18.42;;;13.30;;
23506;SDS011;11930;53.076;18.250;2023-09-08T06:05:18;16.92;;;13.05;;
23506;SDS011;11930;53.076;18.250;2023-09-08T06:07:44;18.08;;;12.77;;
23506;SDS011;11930;53.076;18.250;2023-09-08T06:10:11;18.35;;;13.18;;
23506;SDS011;11930;53.076;18.250;2023-09-08T06:12:37;18.13;;;12.43;;
23506;SDS011;11930;53.076;18.250;2023-09-08T06:15:04;19.55;;;13.30;;
23506;SDS011;11930;53.076;18.250;2023-09-08T06:17:33;15.50;;;13.13;;
23506;SDS011;11930;53.076;18.250;2023-09-08T06:19:59;15.82;;;12.65;;
23506;SDS011;11930;53.076;18.250;2023-09-08T06:22:28;14.85;;;12.63;;
23506;SDS011;11930;53.076;18.250;2023-09-08T06:24:55;17.45;;;13.10;;
23506;SDS011;11930;53.076;18.250;2023-09-08T06:27:21;18.08;;;13.93;;
23506;SDS011;11930;53.076;18.250;2023-09-08T06:29:47;18.92;;;13.48;;
23506;SDS011;11930;53.076;18.250;2023-09-08T06:32:14;19.73;;;13.88;;
23506;SDS011;11930;53.076;18.250;2023-09-08T06:34:48;16.30;;;12.70;;
23506;SDS011;11930;53.076;18.250;2023-09-08T06:37:14;20.55;;;13.45;;
23506;SDS011;11930;53.076;18.250;2023-09-08T06:39:41;15.63;;;12.35;;
23506;SDS011;11930;53.076;18.250;2023-09-08T06:42:07;17.58;;;12.35;;
23506;SDS011;11930;53.076;18.250;2023-09-08T06:44:35;18.10;;;13.13;;
23506;SDS011;11930;53.076;18.250;2023-09-08T06:47:03;21.48;;;13.60;;
23506;SDS011;11930;53.076;18.250;2023-09-08T06:49:32;18.50;;;13.63;;
23506;SDS011;11930;53.076;18.250;2023-09-08T06:51:58;20.90;;;13.38;;
23506;SDS011;11930;53.076;18.250;2023-09-08T06:54:24;19.45;;;12.90;;
23506;SDS011;11930;53.076;18.250;2023-09-08T06:57:00;19.55;;;12.73;;
23506;SDS011;11930;53.076;18.250;2023-09-08T06:59:27;16.05;;;12.02;;
23506;SDS011;11930;53.076;18.250;2023-09-08T07:01:56;19.38;;;14.02;;
23506;SDS011;11930;53.076;18.250;2023-09-08T07:04:22;17.40;;;12.10;;
23506;SDS011;11930;53.076;18.250;2023-09-08T07:06:48;18.55;;;12.80;;
23506;SDS011;11930;53.076;18.250;2023-09-08T07:09:15;17.10;;;12.55;;
23506;SDS011;11930;53.076;18.250;2023-09-08T07:11:42;16.20;;;11.02;;
23506;SDS011;11930;53.076;18.250;2023-09-08T07:14:08;21.48;;;12.38;;
23506;SDS011;11930;53.076;18.250;2023-09-08T07:16:35;17.08;;;11.88;;
23506;SDS011;11930;53.076;18.250;2023-09-08T07:19:01;21.75;;;11.50;;
23506;SDS011;11930;53.076;18.250;2023-09-08T07:21:27;22.27;;;13.23;;
23506;SDS011;11930;53.076;18.250;2023-09-08T07:23:54;18.73;;;12.15;;
23506;SDS011;11930;53.076;18.250;2023-09-08T07:26:20;24.27;;;12.52;;
23506;SDS011;11930;53.076;18.250;2023-09-08T07:28:46;17.67;;;11.55;;
23506;SDS011;11930;53.076;18.250;2023-09-08T07:31:14;21.15;;;11.60;;
23506;SDS011;11930;53.076;18.250;2023-09-08T07:33:44;17.52;;;11.88;;
23506;SDS011;11930;53.076;18.250;2023-09-08T07:36:10;15.18;;;11.98;;
23506;SDS011;11930;53.076;18.250;2023-09-08T07:38:39;84.13;;;58.50;;
23506;SDS011;11930;53.076;18.250;2023-09-08T07:41:06;15.63;;;12.80;;
23506;SDS011;11930;53.076;18.250;2023-09-08T07:43:33;19.60;;;11.68;;
23506;SDS011;11930;53.076;18.250;2023-09-08T07:45:59;16.05;;;11.60;;
23506;SDS011;11930;53.076;18.250;2023-09-08T07:48:25;11.90;;;10.50;;
23506;SDS011;11930;53.076;18.250;2023-09-08T07:50:51;11.55;;;10.13;;
23506;SDS011;11930;53.076;18.250;2023-09-08T07:53:17;11.80;;;10.43;;
23506;SDS011;11930;53.076;18.250;2023-09-08T07:55:43;16.10;;;10.15;;
23506;SDS011;11930;53.076;18.250;2023-09-08T07:58:09;19.13;;;10.48;;
23506;SDS011;11930;53.076;18.250;2023-09-08T08:00:36;13.85;;;9.45;;
23506;SDS011;11930;53.076;18.250;2023-09-08T08:03:02;12.27;;;9.18;;
23506;SDS011;11930;53.076;18.250;2023-09-08T08:05:30;18.17;;;11.88;;
23506;SDS011;11930;53.076;18.250;2023-09-08T08:07:55;19.23;;;11.75;;
23506;SDS011;11930;53.076;18.250;2023-09-08T08:10:21;15.93;;;11.73;;
23506;SDS011;11930;53.076;18.250;2023-09-08T08:12:47;15.73;;;11.20;;
23506;SDS011;11930;53.076;18.250;2023-09-08T08:15:14;16.33;;;11.88;;
23506;SDS011;11930;53.076;18.250;2023-09-08T08:17:40;17.58;;;11.73;;
23506;SDS011;11930;53.076;18.250;2023-09-08T08:20:06;15.43;;;10.95;;
23506;SDS011;11930;53.076;18.250;2023-09-08T08:22:42;14.18;;;8.68;;
23506;SDS011;11930;53.076;18.250;2023-09-08T08:25:09;10.52;;;9.10;;
23506;SDS011;11930;53.076;18.250;2023-09-08T08:27:35;18.65;;;10.32;;
23506;SDS011;11930;53.076;18.250;2023-09-08T08:30:01;17.23;;;11.05;;
23506;SDS011;11930;53.076;18.250;2023-09-08T08:32:28;14.90;;;10.13;;
23506;SDS011;11930;53.076;18.250;2023-09-08T08:34:54;15.52;;;9.23;;
23506;SDS011;11930;53.076;18.250;2023-09-08T08:37:20;16.50;;;10.20;;
23506;SDS011;11930;53.076;18.250;2023-09-08T08:39:46;13.98;;;10.18;;
23506;SDS011;11930;53.076;18.250;2023-09-08T08:42:12;11.68;;;8.77;;
23506;SDS011;11930;53.076;18.250;2023-09-08T08:44:39;13.30;;;7.20;;
23506;SDS011;11930;53.076;18.250;2023-09-08T08:50:11;7.45;;;6.70;;
23506;SDS011;11930;53.076;18.250;2023-09-08T08:52:39;11.07;;;8.52;;
23506;SDS011;11930;53.076;18.250;2023-09-08T08:55:06;15.82;;;9.20;;
23506;SDS011;11930;53.076;18.250;2023-09-08T08:57:33;12.02;;;8.48;;
23506;SDS011;11930;53.076;18.250;2023-09-08T09:00:02;12.65;;;7.32;;
23506;SDS011;11930;53.076;18.250;2023-09-08T09:02:32;9.35;;;6.05;;
23506;SDS011;11930;53.076;18.250;2023-09-08T09:04:59;11.20;;;6.70;;
23506;SDS011;11930;53.076;18.250;2023-09-08T09:07:25;11.23;;;7.32;;
23506;SDS011;11930;53.076;18.250;2023-09-08T09:09:52;8.10;;;7.30;;
23506;SDS011;11930;53.076;18.250;2023-09-08T09:12:18;8.50;;;7.07;;
23506;SDS011;11930;53.076;18.250;2023-09-08T09:14:45;8.70;;;6.72;;
23506;SDS011;11930;53.076;18.250;2023-09-08T09:17:14;10.02;;;7.28;;
23506;SDS011;11930;53.076;18.250;2023-09-08T09:19:41;8.70;;;7.45;;
23506;SDS011;11930;53.076;18.250;2023-09-08T09:22:06;9.38;;;7.40;;
23506;SDS011;11930;53.076;18.250;2023-09-08T09:24:34;9.05;;;8.02;;
23506;SDS011;11930;53.076;18.250;2023-09-08T09:27:06;12.00;;;7.63;;
23506;SDS011;11930;53.076;18.250;2023-09-08T09:29:33;10.45;;;7.22;;
23506;SDS011;11930;53.076;18.250;2023-09-08T09:32:08;8.85;;;6.75;;
23506;SDS011;11930;53.076;18.250;2023-09-08T09:34:34;8.07;;;6.10;;
23506;SDS011;11930;53.076;18.250;2023-09-08T09:37:00;8.65;;;7.60;;
23506;SDS011;11930;53.076;18.250;2023-09-08T09:39:27;12.57;;;7.25;;
23506;SDS011;11930;53.076;18.250;2023-09-08T09:41:53;9.80;;;6.60;;
23506;SDS011;11930;53.076;18.250;2023-09-08T09:44:21;7.32;;;5.93;;
23506;SDS011;11930;53.076;18.250;2023-09-08T09:46:51;9.20;;;6.22;;
23506;SDS011;11930;53.076;18.250;2023-09-08T09:49:18;6.95;;;6.25;;
23506;SDS011;11930;53.076;18.250;2023-09-08T09:51:45;7.20;;;6.05;;
23506;SDS011;11930;53.076;18.250;2023-09-08T09:54:16;9.50;;;5.68;;
23506;SDS011;11930;53.076;18.250;2023-09-08T09:56:45;6.95;;;5.50;;
23506;SDS011;11930;53.076;18.250;2023-09-08T09:59:13;8.27;;;5.75;;
23506;SDS011;11930;53.076;18.250;2023-09-08T10:01:40;8.38;;;6.43;;
23506;SDS011;11930;53.076;18.250;2023-09-08T10:04:08;11.07;;;6.00;;
23506;SDS011;11930;53.076;18.250;2023-09-08T10:06:37;6.85;;;5.20;;
23506;SDS011;11930;53.076;18.250;2023-09-08T10:09:05;7.55;;;5.78;;
23506;SDS011;11930;53.076;18.250;2023-09-08T10:11:48;7.30;;;5.68;;
23506;SDS011;11930;53.076;18.250;2023-09-08T10:14:15;7.50;;;5.60;;
23506;SDS011;11930;53.076;18.250;2023-09-08T10:16:42;7.82;;;5.25;;
23506;SDS011;11930;53.076;18.250;2023-09-08T10:19:10;6.95;;;5.30;;
23506;SDS011;11930;53.076;18.250;2023-09-08T10:21:42;7.53;;;5.55;;
23506;SDS011;11930;53.076;18.250;2023-09-08T10:24:24;9.43;;;5.97;;
23506;SDS011;11930;53.076;18.250;2023-09-08T10:29:37;10.52;;;5.97;;
23506;SDS011;11930;53.076;18.250;2023-09-08T10:32:04;9.77;;;5.70;;
23506;SDS011;11930;53.076;18.250;2023-09-08T10:34:33;7.03;;;5.88;;
23506;SDS011;11930;53.076;18.250;2023-09-08T10:37:00;6.30;;;5.25;;
23506;SDS011;11930;53.076;18.250;2023-09-08T10:47:13;6.60;;;5.10;;
23506;SDS011;11930;53.076;18.250;2023-09-08T10:49:40;6.72;;;5.30;;
23506;SDS011;11930;53.076;18.250;2023-09-08T10:52:10;6.28;;;4.93;;
23506;SDS011;11930;53.076;18.250;2023-09-08T10:57:12;9.75;;;5.53;;
23506;SDS011;11930;53.076;18.250;2023-09-08T10:59:40;5.63;;;4.70;;
23506;SDS011;11930;53.076;18.250;2023-09-08T11:05:02;6.88;;;5.40;;
23506;SDS011;11930;53.076;18.250;2023-09-08T11:07:30;8.52;;;5.47;;
23506;SDS011;11930;53.076;18.250;2023-09-08T11:09:59;5.95;;;4.80;;
23506;SDS011;11930;53.076;18.250;2023-09-08T11:12:27;6.68;;;5.38;;
23506;SDS011;11930;53.076;18.250;2023-09-08T11:15:11;16.75;;;5.70;;
23506;SDS011;11930;53.076;18.250;2023-09-08T11:17:38;5.88;;;5.13;;
23506;SDS011;11930;53.076;18.250;2023-09-08T11:20:07;6.90;;;5.38;;
23506;SDS011;11930;53.076;18.250;2023-09-08T11:22:36;7.32;;;5.15;;
23506;SDS011;11930;53.076;18.250;2023-09-08T11:25:03;6.28;;;4.70;;
23506;SDS011;11930;53.076;18.250;2023-09-08T11:27:32;6.07;;;5.05;;
23506;SDS011;11930;53.076;18.250;2023-09-08T11:29:59;8.40;;;5.13;;
23506;SDS011;11930;53.076;18.250;2023-09-08T11:32:25;7.20;;;5.43;;
23506;SDS011;11930;53.076;18.250;2023-09-08T11:35:04;5.50;;;4.68;;
23506;SDS011;11930;53.076;18.250;2023-09-08T11:37:38;7.25;;;5.20;;
23506;SDS011;11930;53.076;18.250;2023-09-08T11:40:06;8.45;;;5.18;;
23506;SDS011;11930;53.076;18.250;2023-09-08T11:42:42;5.78;;;4.97;;
23506;SDS011;11930;53.076;18.250;2023-09-08T11:45:13;11.10;;;5.80;;
23506;SDS011;11930;53.076;18.250;2023-09-08T11:47:40;7.05;;;5.07;;
23506;SDS011;11930;53.076;18.250;2023-09-08T11:50:10;9.18;;;5.30;;
23506;SDS011;11930;53.076;18.250;2023-09-08T11:52:47;7.78;;;5.00;;
23506;SDS011;11930;53.076;18.250;2023-09-08T11:55:14;6.07;;;5.03;;
23506;SDS011;11930;53.076;18.250;2023-09-08T11:57:41;6.60;;;4.95;;
23506;SDS011;11930;53.076;18.250;2023-09-08T12:00:10;6.10;;;5.00;;
23506;SDS011;11930;53.076;18.250;2023-09-08T12:02:41;5.55;;;4.65;;
23506;SDS011;11930;53.076;18.250;2023-09-08T12:05:13;5.65;;;4.47;;
23506;SDS011;11930;53.076;18.250;2023-09-08T12:07:52;6.38;;;4.47;;
23506;SDS011;11930;53.076;18.250;2023-09-08T12:10:22;8.32;;;5.30;;
23506;SDS011;11930;53.076;18.250;2023-09-08T12:12:50;6.00;;;5.20;;
23506;SDS011;11930;53.076;18.250;2023-09-08T12:15:38;7.72;;;4.80;;
23506;SDS011;11930;53.076;18.250;2023-09-08T12:18:06;6.65;;;5.00;;
23506;SDS011;11930;53.076;18.250;2023-09-08T12:20:34;7.88;;;5.05;;
23506;SDS011;11930;53.076;18.250;2023-09-08T12:23:05;5.70;;;4.85;;
23506;SDS011;11930;53.076;18.250;2023-09-08T12:25:48;7.25;;;4.97;;
23506;SDS011;11930;53.076;18.250;2023-09-08T12:28:16;10.90;;;5.18;;
23506;SDS011;11930;53.076;18.250;2023-09-08T12:30:44;6.25;;;4.80;;
23506;SDS011;11930;53.076;18.250;2023-09-08T12:33:10;9.23;;;5.28;;
23506;SDS011;11930;53.076;18.250;2023-09-08T12:35:38;8.57;;;5.35;;
23506;SDS011;11930;53.076;18.250;2023-09-08T12:38:05;7.82;;;5.30;;
23506;SDS011;11930;53.076;18.250;2023-09-08T12:40:34;7.60;;;5.07;;
23506;SDS011;11930;53.076;18.250;2023-09-08T12:43:02;6.00;;;4.85;;
23506;SDS011;11930;53.076;18.250;2023-09-08T12:45:29;7.45;;;5.10;;
23506;SDS011;11930;53.076;18.250;2023-09-08T12:47:57;6.65;;;5.30;;
23506;SDS011;11930;53.076;18.250;2023-09-08T12:50:25;8.05;;;5.15;;
23506;SDS011;11930;53.076;18.250;2023-09-08T12:52:51;6.70;;;5.03;;
23506;SDS011;11930;53.076;18.250;2023-09-08T12:55:17;6.15;;;5.07;;
23506;SDS011;11930;53.076;18.250;2023-09-08T12:57:43;6.72;;;4.97;;
23506;SDS011;11930;53.076;18.250;2023-09-08T13:00:09;6.70;;;5.22;;
23506;SDS011;11930;53.076;18.250;2023-09-08T13:02:36;7.00;;;5.30;;
23506;SDS011;11930;53.076;18.250;2023-09-08T13:05:02;6.90;;;4.95;;
23506;SDS011;11930;53.076;18.250;2023-09-08T13:07:28;6.60;;;5.30;;
23506;SDS011;11930;53.076;18.250;2023-09-08T13:09:54;5.53;;;4.63;;
23506;SDS011;11930;53.076;18.250;2023-09-08T13:12:20;10.20;;;5.47;;
23506;SDS011;11930;53.076;18.250;2023-09-08T13:14:47;8.18;;;5.55;;
23506;SDS011;11930;53.076;18.250;2023-09-08T13:17:13;8.60;;;5.10;;
23506;SDS011;11930;53.076;18.250;2023-09-08T13:19:42;8.18;;;5.07;;
23506;SDS011;11930;53.076;18.250;2023-09-08T13:22:09;7.50;;;5.18;;
23506;SDS011;11930;53.076;18.250;2023-09-08T13:24:36;12.75;;;5.63;;
23506;SDS011;11930;53.076;18.250;2023-09-08T13:27:02;6.38;;;5.10;;
23506;SDS011;11930;53.076;18.250;2023-09-08T13:29:29;8.32;;;4.93;;
23506;SDS011;11930;53.076;18.250;2023-09-08T13:31:55;7.13;;;5.50;;
23506;SDS011;11930;53.076;18.250;2023-09-08T13:34:23;9.05;;;5.10;;
23506;SDS011;11930;53.076;18.250;2023-09-08T13:36:49;6.05;;;5.18;;
23506;SDS011;11930;53.076;18.250;2023-09-08T13:39:16;7.70;;;5.15;;
23506;SDS011;11930;53.076;18.250;2023-09-08T13:41:51;6.28;;;4.70;;
23506;SDS011;11930;53.076;18.250;2023-09-08T13:44:21;7.78;;;4.93;;
23506;SDS011;11930;53.076;18.250;2023-09-08T13:46:48;6.95;;;5.00;;
23506;SDS011;11930;53.076;18.250;2023-09-08T13:49:15;7.13;;;5.18;;
23506;SDS011;11930;53.076;18.250;2023-09-08T13:51:42;8.15;;;5.32;;
23506;SDS011;11930;53.076;18.250;2023-09-08T13:54:09;13.18;;;6.00;;
23506;SDS011;11930;53.076;18.250;2023-09-08T13:56:35;5.20;;;4.70;;
23506;SDS011;11930;53.076;18.250;2023-09-08T13:59:03;10.65;;;6.32;;
23506;SDS011;11930;53.076;18.250;2023-09-08T14:01:29;8.48;;;5.13;;
23506;SDS011;11930;53.076;18.250;2023-09-08T14:03:57;9.15;;;5.00;;
23506;SDS011;11930;53.076;18.250;2023-09-08T14:06:23;7.57;;;5.40;;
23506;SDS011;11930;53.076;18.250;2023-09-08T14:08:52;5.25;;;4.63;;
23506;SDS011;11930;53.076;18.250;2023-09-08T14:11:18;8.68;;;5.22;;
23506;SDS011;11930;53.076;18.250;2023-09-08T14:13:44;10.85;;;5.03;;
23506;SDS011;11930;53.076;18.250;2023-09-08T14:16:11;5.95;;;4.88;;
23506;SDS011;11930;53.076;18.250;2023-09-08T14:18:38;6.00;;;4.85;;
23506;SDS011;11930;53.076;18.250;2023-09-08T14:21:05;10.57;;;5.90;;
23506;SDS011;11930;53.076;18.250;2023-09-08T14:23:32;9.18;;;5.60;;
23506;SDS011;11930;53.076;18.250;2023-09-08T14:26:03;7.93;;;5.35;;
23506;SDS011;11930;53.076;18.250;2023-09-08T14:28:29;6.47;;;4.82;;
23506;SDS011;11930;53.076;18.250;2023-09-08T14:30:59;7.35;;;5.13;;
23506;SDS011;11930;53.076;18.250;2023-09-08T14:33:25;6.47;;;5.30;;
23506;SDS011;11930;53.076;18.250;2023-09-08T14:35:51;14.50;;;5.35;;
23506;SDS011;11930;53.076;18.250;2023-09-08T14:38:19;12.98;;;5.20;;
23506;SDS011;11930;53.076;18.250;2023-09-08T14:40:59;11.55;;;5.40;;
23506;SDS011;11930;53.076;18.250;2023-09-08T14:43:28;18.70;;;6.60;;